createdAt,value
2023-02-06T10:22:28.577Z,10.68
2023-02-06T10:25:20.249Z,15.75
2023-02-06T10:28:02.520Z,13.60
2023-02-06T10:30:57.014Z,13.32
2023-02-06T10:33:51.033Z,7.43
2023-02-06T10:36:40.025Z,9.80
2023-02-06T10:39:50.942Z,14.82
2023-02-06T10:45:46.410Z,10.30
2023-02-06T10:48:32.832Z,9.45
2023-02-06T10:51:28.179Z,12.20
2023-02-06T10:53:57.382Z,14.45
2023-02-06T10:56:28.720Z,13.63
2023-02-06T10:58:55.062Z,12.60
2023-02-06T11:01:26.391Z,12.32
2023-02-06T11:03:58.814Z,15.07
2023-02-06T11:06:37.676Z,32.67
2023-02-06T11:09:11.611Z,20.80
2023-02-06T11:11:50.046Z,16.23
2023-02-06T11:14:54.176Z,15.15
2023-02-06T11:17:30.946Z,13.15
2023-02-06T11:20:08.157Z,13.68
2023-02-06T15:27:01.764Z,8.95
2023-02-06T15:29:48.269Z,10.10
2023-02-06T15:33:05.208Z,13.90
2023-02-06T15:35:58.830Z,9.38
2023-02-06T15:48:50.609Z,9.95
2023-02-06T15:54:32.987Z,9.50
2023-02-06T16:00:16.878Z,10.45
2023-02-06T16:05:48.190Z,8.50
2023-02-06T16:08:26.946Z,6.78
2023-02-06T16:10:55.896Z,8.88
2023-02-06T16:16:19.611Z,6.30
2023-02-06T16:18:53.243Z,7.78
2023-02-06T16:21:28.030Z,10.32
2023-02-06T16:24:03.329Z,8.07
2023-02-06T16:26:33.384Z,5.65
2023-02-06T16:33:07.446Z,8.75
2023-02-06T16:38:21.679Z,7.95
2023-02-06T16:41:43.962Z,10.07
2023-02-06T16:48:21.866Z,5.45
2023-02-06T16:55:22.246Z,6.32
2023-02-06T16:57:22.464Z,6.75
2023-02-06T17:00:33.394Z,8.50
2023-02-06T17:03:55.305Z,6.20
2023-02-06T17:10:09.639Z,6.13
2023-02-06T17:15:56.402Z,7.18
2023-02-06T17:21:28.607Z,9.07
2023-02-06T17:24:42.581Z,7.30
2023-02-06T17:30:58.339Z,9.13
2023-02-06T17:39:49.817Z,23.65
2023-02-06T17:42:37.265Z,18.10
2023-02-06T17:45:14.328Z,21.02
2023-02-06T17:48:44.161Z,17.63
2023-02-06T17:51:19.571Z,13.00
2023-02-06T17:57:19.802Z,19.75
2023-02-06T18:05:34.448Z,8.75
2023-02-06T18:08:26.122Z,9.52
2023-02-06T18:11:40.092Z,10.00
2023-02-06T18:14:22.519Z,9.52
2023-02-06T18:17:11.791Z,7.70
2023-02-06T18:20:22.088Z,7.50
2023-02-06T18:23:12.260Z,11.45
2023-02-06T18:28:24.567Z,7.60
2023-02-06T18:31:16.441Z,12.10
2023-02-06T18:35:27.683Z,6.97
2023-02-06T18:36:47.477Z,7.28
2023-02-06T18:39:59.071Z,8.80
2023-02-06T18:42:46.506Z,9.73
2023-02-06T18:45:16.273Z,9.13
2023-02-06T18:48:34.891Z,7.82
2023-02-06T18:51:24.879Z,7.55
2023-02-06T18:54:06.128Z,7.60
2023-02-06T18:56:46.025Z,8.55
2023-02-06T18:59:25.379Z,7.30
2023-02-06T19:02:00.024Z,8.40
2023-02-06T19:04:37.482Z,10.02
2023-02-06T19:17:30.147Z,11.38
2023-02-06T19:23:22.916Z,7.38
2023-02-06T19:26:35.991Z,6.65
2023-02-06T19:29:36.006Z,8.57
2023-02-06T19:32:19.233Z,7.53
2023-02-06T19:35:22.915Z,4.60
2023-02-06T19:48:26.764Z,4.90
2023-02-06T19:51:02.071Z,6.32
2023-02-06T19:54:09.860Z,5.30
2023-02-06T20:00:41.060Z,4.90
2023-02-06T20:03:15.109Z,4.63
2023-02-06T20:05:48.329Z,3.88
2023-02-06T20:11:18.973Z,4.97
2023-02-06T20:14:37.046Z,4.70
